Time;durP1;ratioP1;P1;durP2;ratioP2;P2;SDS_P1;SDS_P2;PMS_P1;PMS_P2;Temp;Humidity;BMP_temperature;BMP_pressure;BME280_temperature;BME280_humidity;BME280_pressure;Samples;Min_cycle;Max_cycle;Signal;HPM_P1;HPM_P2
2021/09/23 00:00:39;;;;;;;4.25;0.60;;;;;;;11.16;100.00;100389.97;5054106;28;20048;-51
2021/09/23 00:07:05;;;;;;;0.20;0.20;;;;;;;11.27;100.00;100389.50;5034258;28;20068;-51
2021/09/23 00:10:10;;;;;;;0.65;0.40;;;;;;;11.27;100.00;100386.72;5034323;28;20040;-50
2021/09/23 00:13:14;;;;;;;0.65;0.20;;;;;;;11.21;100.00;100385.78;5034346;28;20052;-51
2021/09/23 00:16:20;;;;;;;0.90;0.82;;;;;;;11.13;100.00;100370.63;5034336;28;20052;-51
2021/09/23 00:19:24;;;;;;;0.75;0.63;;;;;;;11.17;100.00;100365.69;5034650;28;20107;-51
2021/09/23 00:22:27;;;;;;;2.72;1.30;;;;;;;11.17;100.00;100372.03;5033872;28;20504;-51
2021/09/23 00:25:30;;;;;;;0.60;0.50;;;;;;;11.11;100.00;100373.13;5033911;28;20045;-51
2021/09/23 00:28:33;;;;;;;0.55;0.30;;;;;;;11.09;100.00;100362.41;5033837;28;20124;-51
2021/09/23 00:31:37;;;;;;;1.05;0.57;;;;;;;11.15;100.00;100365.38;5033373;28;20083;-51
2021/09/23 00:34:40;;;;;;;0.73;0.65;;;;;;;11.15;100.00;100357.75;5033955;28;20052;-51
2021/09/23 00:37:43;;;;;;;1.10;0.43;;;;;;;11.17;100.00;100343.38;5037155;28;20101;-51
2021/09/23 00:40:46;;;;;;;0.73;0.55;;;;;;;11.17;100.00;100346.16;5053777;28;20044;-51
2021/09/23 00:43:50;;;;;;;2.58;0.82;;;;;;;11.19;100.00;100344.47;5037188;28;20126;-51
2021/09/23 00:46:53;;;;;;;0.63;0.57;;;;;;;11.18;100.00;100328.19;5033455;28;20052;-52
2021/09/23 00:49:57;;;;;;;1.25;0.45;;;;;;;11.18;100.00;100325.38;5033264;28;20091;-51
2021/09/23 00:53:00;;;;;;;1.35;0.60;;;;;;;11.22;100.00;100314.84;5053467;28;20044;-51
2021/09/23 00:56:05;;;;;;;3.58;0.60;;;;;;;11.28;100.00;100308.16;5053392;28;20126;-51
2021/09/23 00:59:08;;;;;;;0.30;0.25;;;;;;;11.36;100.00;100309.41;5053546;28;20062;-51
2021/09/23 01:02:11;;;;;;;0.82;0.30;;;;;;;11.51;100.00;100312.28;5053359;28;20132;-51
2021/09/23 01:05:16;;;;;;;0.65;0.55;;;;;;;11.65;100.00;100313.63;5053248;28;20118;-50
2021/09/23 01:08:20;;;;;;;1.00;0.57;;;;;;;11.78;100.00;100317.75;5053334;28;20055;-51
2021/09/23 01:11:27;;;;;;;0.30;0.30;;;;;;;11.89;100.00;100318.03;5053429;28;20040;-50
2021/09/23 01:14:30;;;;;;;1.45;0.85;;;;;;;12.01;100.00;100319.84;5041205;28;20048;-50
2021/09/23 01:17:34;;;;;;;0.40;0.40;;;;;;;12.11;100.00;100307.34;5053427;28;20872;-50
2021/09/23 01:20:43;;;;;;;1.77;0.75;;;;;;;12.22;100.00;100306.03;5053099;28;20048;-51
2021/09/23 01:23:46;;;;;;;0.35;0.20;;;;;;;12.31;100.00;100308.78;5053330;28;20147;-50
2021/09/23 01:26:55;;;;;;;1.83;0.43;;;;;;;12.39;100.00;100298.78;5053128;28;20044;-51
2021/09/23 01:30:00;;;;;;;2.65;0.80;;;;;;;12.53;100.00;100303.63;5053089;28;20063;-51
2021/09/23 01:33:05;;;;;;;0.60;0.45;;;;;;;12.63;100.00;100303.06;5053210;28;20048;-50
2021/09/23 01:36:08;;;;;;;0.32;0.32;;;;;;;12.67;100.00;100309.25;5061191;28;20174;-50
2021/09/23 01:39:23;;;;;;;1.08;0.60;;;;;;;12.79;100.00;100296.28;5072862;28;20093;-51
2021/09/23 01:42:26;;;;;;;1.70;1.08;;;;;;;12.98;100.00;100294.84;5039798;28;20111;-50
2021/09/23 01:45:29;;;;;;;0.32;0.17;;;;;;;13.09;100.00;100283.88;5040327;28;20051;-51
2021/09/23 01:48:32;;;;;;;4.95;0.50;;;;;;;13.16;100.00;100277.91;5052762;28;20043;-51
2021/09/23 01:51:35;;;;;;;1.35;0.20;;;;;;;13.21;100.00;100268.81;5052273;28;20075;-52
2021/09/23 01:54:38;;;;;;;0.30;0.30;;;;;;;13.30;100.00;100260.31;5052788;28;20051;-50
2021/09/23 01:57:41;;;;;;;0.40;0.30;;;;;;;13.31;100.00;100249.91;5065118;28;20043;-50
2021/09/23 02:00:44;;;;;;;1.52;0.68;;;;;;;13.37;100.00;100248.75;5071962;28;20082;-51
2021/09/23 02:03:48;;;;;;;1.85;1.40;;;;;;;13.42;100.00;100248.06;5076448;28;20054;-51
2021/09/23 02:06:51;;;;;;;1.25;0.57;;;;;;;13.48;100.00;100234.16;5076964;28;20523;-51
2021/09/23 02:09:54;;;;;;;5.75;0.43;;;;;;;13.50;100.00;100229.63;5075318;28;20519;-50
2021/09/23 02:12:57;;;;;;;0.30;0.22;;;;;;;13.57;100.00;100231.25;5076320;28;20158;-51
2021/09/23 02:16:02;;;;;;;0.45;0.30;;;;;;;13.87;100.00;100223.50;5076836;28;20479;-51
2021/09/23 02:19:05;;;;;;;0.10;0.10;;;;;;;13.74;100.00;100212.66;5076632;28;20491;-51
2021/09/23 02:22:08;;;;;;;0.70;0.70;;;;;;;13.75;100.00;100199.44;5076553;28;20063;-50
2021/09/23 02:25:11;;;;;;;0.50;0.15;;;;;;;14.05;100.00;100189.63;5076494;28;20056;-51
2021/09/23 02:28:15;;;;;;;0.82;0.50;;;;;;;13.87;100.00;100187.88;5076481;28;20401;-51
2021/09/23 02:31:18;;;;;;;1.10;0.30;;;;;;;13.85;100.00;100198.03;5075544;28;20071;-50
2021/09/23 02:34:21;;;;;;;0.45;0.28;;;;;;;14.08;100.00;100185.81;5076320;28;20105;-50
2021/09/23 02:37:24;;;;;;;1.85;0.25;;;;;;;14.43;100.00;100192.13;5056878;28;20117;-49
2021/09/23 02:40:27;;;;;;;0.20;0.20;;;;;;;14.50;100.00;100180.47;5055927;28;20044;-49
2021/09/23 02:43:30;;;;;;;0.57;0.20;;;;;;;14.11;100.00;100188.44;5055789;28;20132;-51
2021/09/23 02:46:33;;;;;;;1.10;1.00;;;;;;;14.16;100.00;100195.38;5056331;28;20135;-53
2021/09/23 02:49:37;;;;;;;0.93;0.57;;;;;;;14.76;100.00;100191.66;5055839;28;20040;-51
2021/09/23 02:52:40;;;;;;;5.10;0.65;;;;;;;14.70;100.00;100183.22;5055872;28;20052;-49
2021/09/23 02:55:42;;;;;;;1.25;0.50;;;;;;;14.98;100.00;100173.00;5055587;28;20488;-49
2021/09/23 02:58:47;;;;;;;2.95;0.32;;;;;;;14.84;100.00;100176.72;5055737;28;20106;-51
2021/09/23 03:01:50;;;;;;;0.25;0.20;;;;;;;14.83;100.00;100171.59;5055612;28;20052;-50
2021/09/23 03:04:53;;;;;;;1.98;0.22;;;;;;;14.82;100.00;100189.69;5055591;28;20118;-51
2021/09/23 03:07:55;;;;;;;5.57;0.93;;;;;;;15.04;100.00;100179.44;5055603;28;20483;-51
2021/09/23 03:10:59;;;;;;;0.28;0.28;;;;;;;15.14;100.00;100171.56;5055545;28;20086;-51
2021/09/23 03:14:02;;;;;;;0.80;0.20;;;;;;;15.12;100.00;100169.28;5055230;28;20043;-51
2021/09/23 03:17:05;;;;;;;1.65;0.80;;;;;;;15.20;100.00;100158.38;5059039;28;20047;-51
2021/09/23 03:20:08;;;;;;;0.57;0.32;;;;;;;15.30;100.00;100153.31;5075361;28;20376;-51
2021/09/23 03:23:13;;;;;;;0.32;0.20;;;;;;;15.33;100.00;100152.34;5075535;28;20044;-52
2021/09/23 03:26:17;;;;;;;0.82;0.50;;;;;;;15.39;100.00;100151.09;5075289;28;20138;-52
2021/09/23 03:29:20;;;;;;;2.40;0.35;;;;;;;15.48;100.00;100136.91;5075242;28;20052;-52
2021/09/23 03:32:23;;;;;;;0.17;0.10;;;;;;;15.36;100.00;100138.06;5075180;28;20446;-51
2021/09/23 03:35:26;;;;;;;3.83;0.35;;;;;;;15.43;100.00;100131.19;5071970;28;20044;-51
2021/09/23 03:38:29;;;;;;;0.90;0.57;;;;;;;15.23;100.00;100145.34;5055241;28;20043;-51
2021/09/23 03:41:32;;;;;;;1.52;0.32;;;;;;;15.51;100.00;100140.72;5054777;28;20044;-51
2021/09/23 03:44:35;;;;;;;3.53;0.50;;;;;;;15.72;100.00;100142.84;5070224;28;20357;-51
2021/09/23 03:47:39;;;;;;;0.15;0.10;;;;;;;15.75;100.00;100135.47;5074505;28;20040;-52
2021/09/23 03:50:42;;;;;;;1.30;0.47;;;;;;;15.83;100.00;100142.16;5074551;28;20063;-51
2021/09/23 03:53:45;;;;;;;1.88;1.55;;;;;;;15.79;100.00;100131.16;5075031;28;20077;-52
2021/09/23 03:56:48;;;;;;;4.18;1.10;;;;;;;15.91;100.00;100131.97;5074576;28;20056;-51
2021/09/23 03:59:51;;;;;;;0.10;0.10;;;;;;;15.89;100.00;100117.66;5074369;28;20079;-52
2021/09/23 04:02:54;;;;;;;0.22;0.22;;;;;;;16.04;100.00;100112.59;5074679;28;20086;-52
2021/09/23 04:05:57;;;;;;;3.75;0.75;;;;;;;16.05;100.00;100107.75;5058184;28;20075;-52
2021/09/23 04:09:00;;;;;;;4.68;0.35;;;;;;;16.03;100.00;100102.63;5073157;28;20983;-52
2021/09/23 04:12:03;;;;;;;0.90;0.63;;;;;;;16.42;100.00;100080.97;5074285;28;20488;-51
2021/09/23 04:15:07;;;;;;;6.13;0.32;;;;;;;16.52;100.00;100078.72;5074670;28;20043;-51
2021/09/23 04:18:15;;;;;;;1.50;0.40;;;;;;;16.35;100.00;100081.47;5074361;28;20043;-52
2021/09/23 04:21:18;;;;;;;0.40;0.40;;;;;;;16.40;100.00;100071.50;5074106;28;20067;-52
2021/09/23 04:24:21;;;;;;;0.20;0.20;;;;;;;16.45;100.00;100074.34;5073309;28;20454;-52
2021/09/23 04:27:24;;;;;;;1.95;0.30;;;;;;;16.48;100.00;100073.28;5074103;28;20121;-51
2021/09/23 04:30:27;;;;;;;1.00;0.40;;;;;;;16.47;100.00;100080.22;5073753;28;20036;-51
2021/09/23 04:33:29;;;;;;;1.77;0.45;;;;;;;16.55;100.00;100069.25;5073945;28;20106;-51
2021/09/23 04:36:32;;;;;;;2.60;0.60;;;;;;;16.60;100.00;100072.06;5061900;28;20051;-51
2021/09/23 04:39:35;;;;;;;2.10;0.55;;;;;;;16.68;100.00;100061.81;5054209;28;20519;-51
2021/09/23 04:42:41;;;;;;;0.20;0.20;;;;;;;16.72;100.00;100069.25;5057595;28;20055;-51
2021/09/23 04:45:44;;;;;;;0.55;0.20;;;;;;;16.74;100.00;100072.31;5073557;28;20062;-51
2021/09/23 04:48:52;;;;;;;5.68;0.30;;;;;;;16.76;100.00;100064.13;5073733;28;20047;-51
2021/09/23 04:51:56;;;;;;;0.70;0.28;;;;;;;16.73;100.00;100060.28;5072357;28;20043;-52
2021/09/23 04:55:00;;;;;;;2.00;0.20;;;;;;;16.75;100.00;100056.97;5073900;28;20190;-50
2021/09/23 04:58:04;;;;;;;0.30;0.30;;;;;;;16.72;100.00;100063.63;5073619;28;20518;-51
2021/09/23 05:01:07;;;;;;;0.32;0.15;;;;;;;16.72;100.00;100052.38;5073316;28;20132;-52
2021/09/23 05:04:10;;;;;;;0.10;0.10;;;;;;;15.47;100.00;100058.78;5073475;28;20069;-52
2021/09/23 05:07:13;;;;;;;8.50;0.35;;;;;;;15.35;100.00;100060.00;5072315;28;20499;-51
2021/09/23 05:10:15;;;;;;;0.75;0.73;;;;;;;16.44;100.00;100061.53;5073414;28;20113;-51
2021/09/23 05:13:19;;;;;;;0.10;0.10;;;;;;;16.78;100.00;100044.69;5073143;28;20090;-51
2021/09/23 05:16:22;;;;;;;1.08;0.17;;;;;;;16.96;100.00;100050.53;5073100;28;20044;-51
2021/09/23 05:19:25;;;;;;;0.95;0.20;;;;;;;16.99;100.00;100043.09;5073389;28;20035;-51
2021/09/23 05:22:29;;;;;;;0.13;0.05;;;;;;;17.07;100.00;100044.09;5073238;28;20075;-51
2021/09/23 05:25:33;;;;;;;0.20;0.20;;;;;;;16.76;100.00;100041.63;5073252;28;20484;-51
2021/09/23 05:28:36;;;;;;;0.25;0.20;;;;;;;16.36;100.00;100059.75;5071697;28;20117;-52
2021/09/23 05:31:40;;;;;;;0.55;0.28;;;;;;;16.35;100.00;100047.00;5072867;28;20079;-52
2021/09/23 05:34:43;;;;;;;4.57;0.38;;;;;;;17.24;100.00;100047.63;5072828;28;20051;-52
2021/09/23 05:37:47;;;;;;;1.08;0.28;;;;;;;17.37;100.00;100040.16;5053341;28;20405;-51
2021/09/23 05:40:50;;;;;;;5.57;0.20;;;;;;;16.65;100.00;100037.53;5053011;28;20095;-52
2021/09/23 05:43:53;;;;;;;3.40;0.22;;;;;;;16.76;100.00;100058.50;5053164;28;20569;-52
2021/09/23 05:46:57;;;;;;;1.52;0.32;;;;;;;17.02;100.00;100054.09;5052971;28;20127;-52
2021/09/23 05:50:01;;;;;;;0.38;0.30;;;;;;;17.21;100.00;100062.75;5052708;28;20091;-51
2021/09/23 05:53:04;;;;;;;0.20;0.10;;;;;;;16.85;100.00;100056.16;5052664;28;20112;-51
2021/09/23 05:56:07;;;;;;;0.30;0.20;;;;;;;17.23;100.00;100051.75;5052715;28;20110;-51
2021/09/23 05:59:09;;;;;;;0.20;0.20;;;;;;;17.35;100.00;100047.59;5052678;28;20102;-49
2021/09/23 06:02:12;;;;;;;0.50;0.38;;;;;;;17.35;100.00;100048.38;5052614;28;20086;-53
2021/09/23 06:05:15;;;;;;;0.52;0.20;;;;;;;16.84;100.00;100048.25;5052674;28;20123;-50
2021/09/23 06:08:18;;;;;;;0.10;0.10;;;;;;;16.89;100.00;100050.31;5053094;28;20044;-50
2021/09/23 06:11:21;;;;;;;0.10;0.10;;;;;;;17.06;100.00;100056.66;5052675;28;20099;-51
2021/09/23 06:14:24;;;;;;;0.15;0.10;;;;;;;17.17;100.00;100051.00;5052681;28;20043;-50
2021/09/23 06:17:27;;;;;;;5.60;0.55;;;;;;;17.09;100.00;100052.78;5052275;28;20044;-51
2021/09/23 06:20:31;;;;;;;0.70;0.20;;;;;;;16.28;100.00;100048.28;5052653;28;20040;-51
2021/09/23 06:23:35;;;;;;;0.75;0.43;;;;;;;16.38;100.00;100066.41;5052485;28;20459;-51
2021/09/23 06:26:38;;;;;;;0.17;0.10;;;;;;;16.59;100.00;100066.94;5052490;28;20044;-51
2021/09/23 06:29:41;;;;;;;0.20;0.10;;;;;;;16.82;100.00;100053.63;5052211;28;20040;-51
2021/09/23 06:32:44;;;;;;;0.28;0.20;;;;;;;16.82;100.00;100059.25;5052558;28;20036;-51
2021/09/23 06:35:47;;;;;;;0.65;0.25;;;;;;;16.92;100.00;100066.13;5056942;28;20419;-51
2021/09/23 06:38:50;;;;;;;0.65;0.40;;;;;;;16.65;100.00;100082.53;5072321;28;20039;-53
2021/09/23 06:41:53;;;;;;;3.20;0.22;;;;;;;16.52;100.00;100079.47;5071053;28;20122;-51
2021/09/23 06:44:56;;;;;;;0.65;0.20;;;;;;;16.48;100.00;100084.53;5071917;28;20526;-52
2021/09/23 06:48:00;;;;;;;1.20;0.47;;;;;;;16.76;100.00;100072.56;5071290;28;20114;-48
2021/09/23 06:51:03;;;;;;;0.22;0.22;;;;;;;17.03;100.00;100071.75;5074888;28;20067;-51
2021/09/23 06:54:07;;;;;;;2.50;0.20;;;;;;;17.53;100.00;100066.75;5075293;28;20559;-51
2021/09/23 06:57:10;;;;;;;0.20;0.20;;;;;;;17.61;100.00;100076.19;5075515;28;20135;-51
2021/09/23 07:00:13;;;;;;;0.17;0.10;;;;;;;16.06;100.00;100086.78;5075547;28;20495;-51
2021/09/23 07:03:17;;;;;;;1.08;0.40;;;;;;;17.06;100.00;100077.13;5075497;28;20118;-52
2021/09/23 07:06:20;;;;;;;0.60;0.25;;;;;;;17.28;100.00;100070.69;5073973;28;20420;-51
2021/09/23 07:09:23;;;;;;;1.90;0.45;;;;;;;17.94;100.00;100084.50;5075166;28;20127;-50
2021/09/23 07:12:26;;;;;;;0.17;0.10;;;;;;;18.23;100.00;100068.16;5075200;28;20106;-50
2021/09/23 07:15:30;;;;;;;0.50;0.30;;;;;;;18.18;100.00;100081.78;5075179;28;20094;-52
2021/09/23 07:18:33;;;;;;;2.38;0.63;;;;;;;18.24;100.00;100072.50;5075417;28;20086;-51
2021/09/23 07:21:36;;;;;;;1.38;0.50;;;;;;;17.84;100.00;100083.28;5074929;28;20075;-51
2021/09/23 07:24:41;;;;;;;0.57;0.20;;;;;;;17.74;100.00;100084.84;5075279;28;20141;-52
2021/09/23 07:27:44;;;;;;;0.90;0.40;;;;;;;17.62;100.00;100083.38;5074856;28;20446;-52
2021/09/23 07:30:48;;;;;;;2.78;0.52;;;;;;;17.65;100.00;100099.22;5073784;28;20086;-51
2021/09/23 07:33:52;;;;;;;2.15;0.40;;;;;;;17.73;100.00;100108.69;5075021;28;20055;-51
2021/09/23 07:36:55;;;;;;;0.10;0.10;;;;;;;18.30;100.00;100105.00;5058845;28;20044;-48
2021/09/23 07:39:59;;;;;;;1.23;0.25;;;;;;;18.31;100.00;100105.78;5054229;28;20124;-47
2021/09/23 07:43:02;;;;;;;0.50;0.50;;;;;;;18.60;100.00;100108.66;5054737;28;20048;-48
2021/09/23 07:46:05;;;;;;;1.17;0.40;;;;;;;18.72;100.00;100110.13;5054895;28;20040;-48
2021/09/23 07:49:10;;;;;;;0.50;0.20;;;;;;;18.70;100.00;100109.09;5054474;28;20114;-49
2021/09/23 07:52:14;;;;;;;2.47;0.22;;;;;;;17.49;100.00;100125.38;5053311;28;20059;-48
2021/09/23 07:55:18;;;;;;;0.20;0.20;;;;;;;18.60;100.00;100130.47;5054469;28;20094;-47
2021/09/23 07:58:21;;;;;;;8.25;0.90;;;;;;;18.67;100.00;100118.63;5054780;28;20075;-48
2021/09/23 08:01:24;;;;;;;6.63;0.38;;;;;;;18.79;100.00;100105.97;5054268;28;20496;-48
2021/09/23 08:04:27;;;;;;;0.38;0.13;;;;;;;18.84;100.00;100117.19;5041823;28;20048;-48
2021/09/23 08:07:30;;;;;;;0.20;0.10;;;;;;;18.96;100.00;100117.09;5054093;28;20048;-48
2021/09/23 08:10:33;;;;;;;4.45;0.22;;;;;;;18.95;100.00;100105.03;5054257;28;20049;-48
2021/09/23 08:13:35;;;;;;;1.95;0.45;;;;;;;18.82;100.00;100097.19;5041738;28;20098;-48
2021/09/23 08:16:39;;;;;;;1.65;0.20;;;;;;;18.68;100.00;100101.19;5053954;28;20055;-48
2021/09/23 08:19:42;;;;;;;0.20;0.10;;;;;;;18.79;100.00;100103.91;5068809;28;20051;-48
2021/09/23 08:22:46;;;;;;;0.17;0.10;;;;;;;18.85;100.00;100113.09;5061328;28;20527;-48
2021/09/23 08:25:51;;;;;;;0.10;0.00;;;;;;;18.99;100.00;100099.88;5073896;28;20097;-48
2021/09/23 08:28:55;;;;;;;0.10;0.10;;;;;;;19.04;100.00;100095.44;5072584;28;20381;-48
2021/09/23 08:31:58;;;;;;;0.00;0.00;;;;;;;19.18;100.00;100088.66;5073723;28;20081;-48
2021/09/23 08:35:06;;;;;;;0.40;0.40;;;;;;;19.16;100.00;100086.34;5073898;28;20126;-48
2021/09/23 08:38:09;;;;;;;0.15;0.05;;;;;;;19.35;100.00;100081.56;5053758;28;20515;-48
2021/09/23 08:41:13;;;;;;;0.10;0.10;;;;;;;19.48;100.00;100080.88;5053378;28;20056;-49
2021/09/23 08:44:16;;;;;;;0.68;0.47;;;;;;;19.50;100.00;100084.72;5053618;28;20140;-49
2021/09/23 08:47:19;;;;;;;0.10;0.00;;;;;;;19.68;100.00;100083.97;5053315;28;20044;-47
2021/09/23 08:50:23;;;;;;;0.05;0.03;;;;;;;19.90;100.00;100080.09;5053361;28;20056;-48
2021/09/23 08:53:27;;;;;;;0.30;0.10;;;;;;;20.07;100.00;100071.38;5053173;28;20511;-49
2021/09/23 08:56:30;;;;;;;0.10;0.10;;;;;;;20.14;100.00;100076.41;5053478;28;20040;-47
2021/09/23 08:59:33;;;;;;;0.00;0.00;;;;;;;20.29;100.00;100088.06;5052925;28;20087;-47
2021/09/23 09:02:36;;;;;;;2.30;0.10;;;;;;;19.82;100.00;100070.69;5069462;28;20127;-47
2021/09/23 09:05:38;;;;;;;0.90;0.20;;;;;;;19.42;100.00;100064.00;5073268;28;20063;-47
2021/09/23 09:08:42;;;;;;;0.10;0.10;;;;;;;19.90;100.00;100063.13;5073344;28;20039;-48
2021/09/23 09:11:46;;;;;;;1.15;0.10;;;;;;;20.18;100.00;100083.28;5072539;28;20105;-47
2021/09/23 09:14:49;;;;;;;0.28;0.20;;;;;;;20.31;100.00;100099.59;5069756;28;20097;-48
2021/09/23 09:17:52;;;;;;;0.20;0.10;;;;;;;20.53;100.00;100109.81;5072015;28;20554;-47
2021/09/23 09:21:03;;;;;;;0.10;0.10;;;;;;;20.55;100.00;100124.19;5072939;28;20043;-47
2021/09/23 09:24:06;;;;;;;;;;;;;;;20.42;100.00;100122.06;5073729;28;20170;-47
2021/09/23 09:27:24;;;;;;;0.68;0.05;;;;;;;20.16;100.00;100102.09;5073376;28;20032;-47
2021/09/23 09:30:28;;;;;;;6.63;0.35;;;;;;;20.09;100.00;100116.84;5073008;28;20051;-49
2021/09/23 09:33:36;;;;;;;1.23;0.75;;;;;;;20.03;100.00;100116.16;5072611;28;20051;-47
2021/09/23 09:36:53;;;;;;;3.97;0.40;;;;;;;20.01;100.00;100125.16;5060014;28;20507;-52
2021/09/23 09:39:57;;;;;;;0.90;0.30;;;;;;;19.97;100.00;100146.56;5053097;28;20512;-52
2021/09/23 09:43:04;;;;;;;0.47;0.25;;;;;;;20.04;100.00;100143.13;5072878;28;20099;-52
2021/09/23 09:46:22;;;;;;;1.65;0.30;;;;;;;20.01;100.00;100130.06;5072603;28;20140;-52
2021/09/23 09:49:25;;;;;;;0.10;0.10;;;;;;;20.10;100.00;100132.50;5072724;28;20085;-52
2021/09/23 09:52:31;;;;;;;0.10;0.10;;;;;;;19.99;100.00;100133.41;5072353;28;20036;-52
2021/09/23 09:55:35;;;;;;;6.70;0.13;;;;;;;20.21;100.00;100138.03;5072578;28;20043;-52
2021/09/23 09:58:37;;;;;;;4.22;0.30;;;;;;;20.19;100.00;100135.72;5072385;28;20089;-52
2021/09/23 10:01:42;;;;;;;6.70;0.63;;;;;;;20.10;100.00;100118.34;5071392;28;20056;-50
2021/09/23 10:04:46;;;;;;;1.02;0.30;;;;;;;20.14;100.00;100124.50;5072067;28;20542;-52
2021/09/23 10:07:53;;;;;;;0.20;0.20;;;;;;;20.31;100.00;100127.88;5072768;28;20044;-52
2021/09/23 10:10:57;;;;;;;0.45;0.32;;;;;;;20.35;100.00;100131.94;5072302;28;20384;-51
2021/09/23 10:14:02;;;;;;;2.20;0.25;;;;;;;20.45;100.00;100137.94;5072588;28;20043;-52
2021/09/23 10:17:04;;;;;;;0.10;0.10;;;;;;;20.36;100.00;100136.28;5072419;28;20451;-52
2021/09/23 10:20:09;;;;;;;0.30;0.10;;;;;;;20.27;100.00;100128.16;5072619;28;20042;-50
2021/09/23 10:23:12;;;;;;;1.17;0.10;;;;;;;20.31;100.00;100127.88;5073323;28;20063;-49
2021/09/23 10:26:17;;;;;;;0.28;0.20;;;;;;;20.29;100.00;100130.47;5062337;28;20066;-50
2021/09/23 10:29:21;;;;;;;0.10;0.10;;;;;;;20.48;100.00;100136.88;5076325;28;20115;-50
2021/09/23 10:32:25;;;;;;;4.22;0.85;;;;;;;20.56;100.00;100140.59;5076024;28;20061;-50
2021/09/23 10:35:30;;;;;;;0.63;0.20;;;;;;;20.81;100.00;100142.00;5072528;28;20447;-50
2021/09/23 10:38:34;;;;;;;6.88;0.10;;;;;;;20.77;100.00;100143.63;5055712;28;20123;-51
2021/09/23 10:41:39;;;;;;;0.73;0.40;;;;;;;20.66;100.00;100143.81;5062056;28;20451;-49
2021/09/23 10:44:42;;;;;;;0.98;0.30;;;;;;;20.64;100.00;100150.00;5075780;28;20047;-49
2021/09/23 10:47:47;;;;;;;0.57;0.10;;;;;;;20.71;100.00;100157.88;5075654;28;20090;-49
2021/09/23 10:50:50;;;;;;;0.50;0.30;;;;;;;20.73;100.00;100175.06;5075693;28;20455;-49
2021/09/23 10:53:58;;;;;;;1.60;0.20;;;;;;;20.85;100.00;100167.19;5075447;28;20067;-49
2021/09/23 10:57:03;;;;;;;0.10;0.00;;;;;;;20.91;100.00;100168.63;5075673;28;20051;-52
2021/09/23 11:00:09;;;;;;;0.10;0.00;;;;;;;21.08;100.00;100157.78;5075584;28;20047;-49
2021/09/23 11:03:12;;;;;;;0.10;0.03;;;;;;;21.16;100.00;100171.31;5074592;28;20089;-53
2021/09/23 11:06:16;;;;;;;0.10;0.10;;;;;;;21.12;100.00;100166.72;5075320;28;20430;-51
2021/09/23 11:09:22;;;;;;;0.57;0.10;;;;;;;20.91;100.00;100177.09;5075449;28;20041;-53
2021/09/23 11:12:26;;;;;;;3.50;0.25;;;;;;;20.77;100.00;100183.28;5075686;28;20044;-53
2021/09/23 11:15:30;;;;;;;0.10;0.00;;;;;;;20.94;100.00;100184.50;5075588;28;20455;-50
2021/09/23 11:18:35;;;;;;;0.22;0.10;;;;;;;20.73;100.00;100182.78;5075378;28;20558;-49
2021/09/23 11:21:38;;;;;;;0.40;0.10;;;;;;;20.64;100.00;100181.13;5070862;28;20409;-49
2021/09/23 11:24:41;;;;;;;2.35;0.45;;;;;;;20.53;100.00;100178.47;5066311;28;20048;-49
2021/09/23 11:27:46;;;;;;;2.80;0.32;;;;;;;20.55;100.00;100184.38;5075217;28;20463;-49
2021/09/23 11:30:51;;;;;;;0.10;0.00;;;;;;;20.48;100.00;100184.97;5074830;28;20036;-51
2021/09/23 11:33:55;;;;;;;1.83;0.25;;;;;;;20.46;100.00;100176.25;5074588;28;20094;-49
2021/09/23 11:36:58;;;;;;;4.53;0.38;;;;;;;20.42;100.00;100190.69;5059387;28;20072;-51
2021/09/23 11:40:04;;;;;;;2.25;0.22;;;;;;;20.40;100.00;100198.19;5055197;28;20044;-51
2021/09/23 11:43:11;;;;;;;13.23;0.40;;;;;;;20.59;100.00;100186.88;5063456;28;20066;-49
2021/09/23 11:46:15;;;;;;;1.27;0.10;;;;;;;20.82;100.00;100185.22;5074661;28;20503;-51
2021/09/23 11:49:19;;;;;;;0.70;0.25;;;;;;;21.01;100.00;100175.38;5075220;28;20053;-48
2021/09/23 11:52:34;;;;;;;2.47;0.40;;;;;;;21.49;100.00;100173.53;5074419;28;20052;-51
2021/09/23 11:55:42;;;;;;;2.72;0.35;;;;;;;21.55;100.00;100168.56;5074278;28;20051;-48
2021/09/23 11:58:49;;;;;;;2.95;0.50;;;;;;;21.18;100.00;100177.22;5074181;28;20051;-48
2021/09/23 12:02:03;;;;;;;4.40;0.20;;;;;;;21.13;100.00;100176.78;5074578;28;20075;-47
2021/09/23 12:05:07;;;;;;;2.13;0.13;;;;;;;20.73;100.00;100179.97;5073495;28;20503;-48
2021/09/23 12:08:14;;;;;;;3.88;0.30;;;;;;;21.23;100.00;100179.16;5074488;28;20047;-48
2021/09/23 12:11:17;;;;;;;3.03;0.30;;;;;;;21.03;100.00;100180.53;5074368;28;20043;-48
2021/09/23 12:14:20;;;;;;;0.25;0.10;;;;;;;21.02;100.00;100191.09;5072717;28;20048;-48
2021/09/23 12:17:23;;;;;;;6.03;0.20;;;;;;;20.93;100.00;100191.50;5054552;28;20512;-48
2021/09/23 12:20:40;;;;;;;0.70;0.30;;;;;;;20.94;100.00;100192.25;5054292;28;20055;-47
2021/09/23 12:23:45;;;;;;;2.80;0.45;;;;;;;20.87;100.00;100190.06;5054425;28;20102;-48
2021/09/23 12:26:48;;;;;;;5.55;0.65;;;;;;;20.83;100.00;100193.19;5054493;28;20039;-47
2021/09/23 12:29:57;;;;;;;1.33;0.45;;;;;;;20.28;100.00;100188.34;5054169;28;20051;-47
2021/09/23 12:33:03;;;;;;;0.73;0.52;;;;;;;20.21;100.00;100180.47;5054030;28;20098;-48
2021/09/23 12:36:14;;;;;;;4.35;0.52;;;;;;;20.77;100.00;100163.44;5062364;28;20086;-50
2021/09/23 12:39:18;;;;;;;4.32;0.30;;;;;;;20.63;100.00;100161.84;5074288;28;20123;-47
2021/09/23 12:42:29;;;;;;;3.78;0.57;;;;;;;20.55;100.00;100155.31;5060722;28;20040;-49
2021/09/23 12:45:32;;;;;;;3.20;0.45;;;;;;;20.55;100.00;100161.72;5052594;28;20500;-49
2021/09/23 12:48:35;;;;;;;4.40;0.20;;;;;;;20.42;100.00;100159.59;5053733;28;20086;-49
2021/09/23 12:51:38;;;;;;;0.98;0.17;;;;;;;20.27;100.00;100164.19;5053483;28;20428;-49
2021/09/23 12:54:50;;;;;;;0.40;0.30;;;;;;;20.26;100.00;100168.31;5054047;28;20043;-49
2021/09/23 12:57:54;;;;;;;0.30;0.20;;;;;;;20.22;100.00;100150.88;5053565;28;20095;-49
2021/09/23 13:00:57;;;;;;;5.38;0.35;;;;;;;20.30;100.00;100135.59;5053496;28;20048;-49
2021/09/23 13:04:00;;;;;;;8.15;0.32;;;;;;;20.24;100.00;100136.97;5041257;28;20098;-49
2021/09/23 13:07:20;;;;;;;6.05;0.22;;;;;;;20.21;100.00;100132.38;5053578;28;20079;-49
2021/09/23 13:10:34;;;;;;;7.15;0.20;;;;;;;20.08;100.00;100137.91;5053574;28;20094;-49
2021/09/23 13:13:37;;;;;;;0.85;0.40;;;;;;;20.02;100.00;100128.75;5041198;28;20043;-49
2021/09/23 13:16:40;;;;;;;0.80;0.43;;;;;;;20.06;100.00;100132.03;5052810;28;20039;-49
2021/09/23 13:19:43;;;;;;;2.83;0.80;;;;;;;20.10;100.00;100138.91;5052795;28;20444;-49
2021/09/23 13:22:46;;;;;;;6.93;1.35;;;;;;;18.87;100.00;100143.59;5052963;28;20628;-49
2021/09/23 13:25:53;;;;;;;5.65;0.75;;;;;;;20.12;100.00;100141.25;5053151;28;20171;-49
2021/09/23 13:28:58;;;;;;;2.03;0.25;;;;;;;20.16;100.00;100153.00;5053240;28;20089;-52
2021/09/23 13:32:02;;;;;;;1.63;0.22;;;;;;;20.14;100.00;100152.78;5052724;28;20091;-52
2021/09/23 13:35:06;;;;;;;0.20;0.10;;;;;;;19.10;100.00;100161.84;5053080;28;20126;-52
2021/09/23 13:38:09;;;;;;;7.57;0.43;;;;;;;18.81;100.00;100162.63;5073098;28;20093;-52
2021/09/23 13:41:12;;;;;;;5.70;0.70;;;;;;;19.90;100.00;100152.81;5073085;28;20594;-52
2021/09/23 13:44:15;;;;;;;1.70;0.30;;;;;;;20.02;100.00;100162.69;5072966;28;20051;-53
2021/09/23 13:47:18;;;;;;;1.65;0.10;;;;;;;20.04;100.00;100162.91;5072842;28;20385;-54
2021/09/23 13:50:21;;;;;;;4.68;0.40;;;;;;;20.18;100.00;100161.72;5072592;28;20059;-52
2021/09/23 13:53:24;;;;;;;0.10;0.10;;;;;;;20.16;100.00;100158.66;5072610;28;20150;-52
2021/09/23 13:56:27;;;;;;;2.13;0.82;;;;;;;20.40;100.00;100164.25;5072853;28;20373;-52
2021/09/23 13:59:30;;;;;;;8.13;0.45;;;;;;;20.75;100.00;100157.53;5076841;28;20063;-54
2021/09/23 14:02:33;;;;;;;0.10;0.10;;;;;;;21.20;100.00;100146.28;5076466;28;20125;-53
2021/09/23 14:05:36;;;;;;;0.38;0.15;;;;;;;21.52;100.00;100138.44;5076729;28;20051;-53
2021/09/23 14:08:38;;;;;;;1.50;0.82;;;;;;;21.65;100.00;100138.44;5076856;28;20105;-51